createdAt,value
2024-05-09T00:00:42.021Z,88.3057
2024-05-09T00:01:41.882Z,88.5960
2024-05-09T00:02:43.998Z,88.7313
2024-05-09T00:03:46.206Z,88.8084
2024-05-09T00:04:48.360Z,88.8007
2024-05-09T00:05:50.550Z,88.9965
2024-05-09T00:06:52.655Z,89.0134
2024-05-09T00:07:54.757Z,89.1297
2024-05-09T00:08:56.847Z,88.9210
2024-05-09T00:09:58.931Z,88.9314
2024-05-09T00:11:01.073Z,89.0504
2024-05-09T00:12:03.221Z,89.0259
2024-05-09T00:13:05.547Z,89.1887
2024-05-09T00:14:07.695Z,88.9397
2024-05-09T00:15:09.782Z,88.9459
2024-05-09T00:16:11.869Z,88.9974
2024-05-09T00:17:14.055Z,89.0816
2024-05-09T00:18:16.398Z,89.1218
2024-05-09T00:19:18.698Z,89.2318
2024-05-09T00:20:28.052Z,89.2212
2024-05-09T00:21:21.391Z,89.1879
2024-05-09T00:22:23.447Z,89.1859
2024-05-09T00:23:25.608Z,89.1234
2024-05-09T00:24:27.718Z,89.0776
2024-05-09T00:25:29.789Z,89.0397
2024-05-09T00:26:32.014Z,89.1113
2024-05-09T00:27:34.072Z,89.1266
2024-05-09T00:28:36.199Z,89.2537
2024-05-09T00:29:38.291Z,89.1792
2024-05-09T00:30:40.335Z,89.1828
2024-05-09T00:31:42.481Z,89.3470
2024-05-09T00:32:44.682Z,89.3675
2024-05-09T00:33:46.904Z,89.3844
2024-05-09T00:34:49.057Z,89.3048
2024-05-09T00:35:51.096Z,89.3158
2024-05-09T00:36:53.182Z,89.3663
2024-05-09T00:37:55.352Z,89.4363
2024-05-09T00:38:57.402Z,89.3570
2024-05-09T00:39:59.461Z,89.4893
2024-05-09T00:41:01.560Z,89.6312
2024-05-09T00:42:03.629Z,89.7878
2024-05-09T00:43:05.724Z,89.7606
2024-05-09T00:44:07.842Z,89.8135
2024-05-09T00:45:09.884Z,89.7317
2024-05-09T00:46:11.971Z,89.8370
2024-05-09T00:47:14.145Z,89.8300
2024-05-09T00:48:18.863Z,89.8013
2024-05-09T00:49:18.114Z,89.6802
2024-05-09T00:50:29.389Z,89.5560
2024-05-09T00:51:20.974Z,89.6814
2024-05-09T00:52:23.065Z,89.5043
2024-05-09T00:53:25.185Z,89.5040
2024-05-09T00:54:27.197Z,89.4847
2024-05-09T00:55:29.291Z,89.3813
2024-05-09T00:56:31.530Z,89.5296
2024-05-09T00:57:33.616Z,89.4212
2024-05-09T00:58:35.696Z,89.4799
2024-05-09T00:59:37.811Z,89.3124
2024-05-09T01:00:41.256Z,89.3744
2024-05-09T01:01:41.527Z,89.3254
2024-05-09T01:02:43.737Z,89.3819
2024-05-09T01:03:48.717Z,89.3790
2024-05-09T01:04:47.576Z,89.1800
2024-05-09T01:05:49.858Z,89.1574
2024-05-09T01:06:51.961Z,89.2428
2024-05-09T01:07:54.150Z,89.1590
2024-05-09T01:08:56.206Z,89.3219
2024-05-09T01:09:58.289Z,89.1945
2024-05-09T01:11:00.472Z,89.2408
2024-05-09T01:12:02.705Z,89.1073
2024-05-09T01:13:04.906Z,89.1382
2024-05-09T01:14:07.142Z,89.0416
2024-05-09T01:15:09.223Z,89.1004
2024-05-09T01:16:11.291Z,89.2180
2024-05-09T01:17:13.459Z,89.0565
2024-05-09T01:18:15.885Z,89.1548
2024-05-09T01:19:18.149Z,89.0927
2024-05-09T01:20:27.826Z,89.0123
2024-05-09T01:21:20.922Z,89.1295
2024-05-09T01:22:23.029Z,88.9234
2024-05-09T01:23:25.235Z,88.8660
2024-05-09T01:24:27.265Z,88.9699
2024-05-09T01:25:29.340Z,89.0304
2024-05-09T01:26:31.494Z,89.0204
2024-05-09T01:27:33.544Z,89.1477
2024-05-09T01:28:35.678Z,89.0048
2024-05-09T01:29:37.834Z,89.1444
2024-05-09T01:30:39.915Z,89.2923
2024-05-09T01:31:42.030Z,89.3847
2024-05-09T01:32:44.164Z,89.2252
2024-05-09T01:33:46.693Z,89.4949
2024-05-09T01:34:46.506Z,89.2305
2024-05-09T01:35:48.581Z,89.2438
2024-05-09T01:36:50.698Z,89.3008
2024-05-09T01:37:52.774Z,89.4555
2024-05-09T01:38:54.868Z,89.4121
2024-05-09T01:39:56.962Z,89.4438
2024-05-09T01:40:59.067Z,89.4173
2024-05-09T01:42:01.107Z,89.4197
2024-05-09T01:43:03.216Z,89.4921
2024-05-09T01:44:05.312Z,89.4246
2024-05-09T01:45:07.371Z,89.3985
2024-05-09T01:46:09.444Z,89.3278
2024-05-09T01:47:11.735Z,89.5799
2024-05-09T01:48:11.891Z,89.4793
2024-05-09T01:49:14.365Z,89.4831
2024-05-09T01:51:15.853Z,89.5079
2024-05-09T01:52:17.909Z,89.5900
2024-05-09T01:53:20.103Z,89.4955
2024-05-09T01:54:22.162Z,89.4625
2024-05-09T01:55:24.357Z,89.4137
2024-05-09T01:56:26.446Z,89.3301
2024-05-09T01:57:28.635Z,89.4363
2024-05-09T01:58:30.731Z,89.3338
2024-05-09T01:59:32.897Z,89.5720
2024-05-09T02:00:40.022Z,89.4692
2024-05-09T02:01:55.592Z,89.5141
2024-05-09T02:02:36.224Z,89.6368
2024-05-09T02:03:38.531Z,89.5216
2024-05-09T02:04:40.791Z,89.3855
2024-05-09T02:05:42.978Z,89.3523
2024-05-09T02:06:42.916Z,89.2156
2024-05-09T02:07:46.415Z,89.1235
2024-05-09T02:08:49.613Z,89.4002
2024-05-09T02:09:53.058Z,89.4423
2024-05-09T02:10:56.366Z,89.3163
2024-05-09T02:11:59.715Z,89.4073
2024-05-09T02:13:02.950Z,89.3177
2024-05-09T02:14:06.311Z,89.4595
2024-05-09T02:15:09.508Z,89.5434
2024-05-09T02:16:12.728Z,89.5123
2024-05-09T02:17:16.128Z,89.4736
2024-05-09T02:18:17.029Z,89.2687
2024-05-09T02:19:16.899Z,89.3103
2024-05-09T02:20:30.048Z,89.3556
2024-05-09T02:21:22.265Z,89.4017
2024-05-09T02:22:25.465Z,89.2975
2024-05-09T02:23:28.688Z,89.3376
2024-05-09T02:24:31.924Z,89.3284
2024-05-09T02:25:35.128Z,89.2941
2024-05-09T02:26:38.368Z,89.5858
2024-05-09T02:27:41.606Z,89.3912
2024-05-09T02:28:44.827Z,89.4040
2024-05-09T02:29:48.080Z,89.4033
2024-05-09T02:30:51.272Z,89.4400
2024-05-09T02:31:54.574Z,89.6415
2024-05-09T02:32:57.884Z,89.4558
2024-05-09T02:34:01.499Z,89.8457
2024-05-09T02:35:01.572Z,89.8136
2024-05-09T02:36:04.946Z,89.3930
2024-05-09T02:37:08.177Z,89.6622
2024-05-09T02:38:11.491Z,89.3764
2024-05-09T02:39:11.436Z,89.6197
2024-05-09T02:40:18.119Z,89.7289
2024-05-09T02:41:16.794Z,89.8091
2024-05-09T02:42:18.115Z,90.0111
2024-05-09T02:43:21.279Z,90.0532
2024-05-09T02:44:24.591Z,89.9646
2024-05-09T02:45:27.833Z,90.0676
2024-05-09T02:46:27.905Z,90.1584
2024-05-09T02:47:31.183Z,90.1065
2024-05-09T02:48:34.561Z,90.0963
2024-05-09T02:49:37.818Z,90.0211
2024-05-09T02:50:41.297Z,90.1473
2024-05-09T02:51:41.176Z,90.0100
2024-05-09T02:52:44.381Z,90.1293
2024-05-09T02:53:47.646Z,90.1515
2024-05-09T02:54:50.943Z,90.3744
2024-05-09T02:55:54.158Z,90.3289
2024-05-09T02:56:57.342Z,90.3201
2024-05-09T02:58:00.587Z,90.1075
2024-05-09T02:59:03.875Z,90.4719
2024-05-09T03:00:12.101Z,90.3670
2024-05-09T03:01:09.175Z,90.4798
2024-05-09T03:02:12.498Z,90.4274
2024-05-09T03:03:16.080Z,90.3821
2024-05-09T03:04:16.151Z,90.2826
2024-05-09T03:05:19.541Z,90.4361
2024-05-09T03:06:22.725Z,90.4760
2024-05-09T03:07:26.220Z,90.6521
2024-05-09T03:08:26.164Z,90.6614
2024-05-09T03:09:29.337Z,90.6023
2024-05-09T03:10:35.852Z,90.3914
2024-05-09T03:11:34.815Z,90.4058
2024-05-09T03:12:37.859Z,90.3341
2024-05-09T03:13:35.152Z,90.5032
2024-05-09T03:14:38.352Z,90.5536
2024-05-09T03:15:41.618Z,90.5464
2024-05-09T03:16:44.823Z,90.6883
2024-05-09T03:17:48.162Z,90.6681
2024-05-09T03:18:48.041Z,90.6170
2024-05-09T03:19:51.300Z,90.7400
2024-05-09T03:20:54.590Z,90.6210
2024-05-09T03:21:57.825Z,90.5622
2024-05-09T03:23:01.053Z,90.6633
2024-05-09T03:24:04.299Z,90.6632
2024-05-09T03:25:05.563Z,90.5030
2024-05-09T03:26:08.856Z,90.6705
2024-05-09T03:27:12.020Z,90.4738
2024-05-09T03:28:15.312Z,90.7844
2024-05-09T03:29:15.344Z,90.6773
2024-05-09T03:30:29.552Z,90.8144
2024-05-09T03:31:20.731Z,90.7711
2024-05-09T03:32:24.121Z,90.8725
2024-05-09T03:33:27.518Z,91.0170
2024-05-09T03:34:30.948Z,91.1481
2024-05-09T03:35:34.207Z,91.1116
2024-05-09T03:36:37.394Z,91.0340
2024-05-09T03:37:40.599Z,91.0265
2024-05-09T03:38:43.876Z,91.0527
2024-05-09T03:39:47.046Z,90.7763
2024-05-09T03:40:50.890Z,90.9501
2024-05-09T03:41:51.020Z,91.1724
2024-05-09T03:42:54.230Z,91.0918
2024-05-09T03:43:58.354Z,91.1812
2024-05-09T03:44:58.052Z,91.1024
2024-05-09T03:46:01.284Z,90.8805
2024-05-09T03:47:04.537Z,90.9116
2024-05-09T03:48:08.096Z,91.0491
2024-05-09T03:49:08.088Z,91.0614
2024-05-09T03:50:18.316Z,90.9161
2024-05-09T03:51:13.549Z,91.0958
2024-05-09T03:52:16.790Z,90.9929
2024-05-09T03:53:20.144Z,91.1331
2024-05-09T03:54:23.317Z,90.9161
2024-05-09T03:55:26.544Z,90.9496
2024-05-09T03:56:29.776Z,91.1647
2024-05-09T03:57:32.996Z,90.9455
2024-05-09T03:58:36.231Z,91.1048
2024-05-09T03:59:39.588Z,90.9670
2024-05-09T04:00:42.845Z,91.0308
2024-05-09T04:01:46.196Z,91.3977
2024-05-09T04:02:49.513Z,91.3205
2024-05-09T04:03:52.845Z,91.1839
2024-05-09T04:04:56.116Z,91.3652
2024-05-09T04:05:59.375Z,91.1221
2024-05-09T04:07:02.563Z,91.1479
2024-05-09T04:08:05.799Z,91.1212
2024-05-09T04:09:05.850Z,91.0229
2024-05-09T04:10:13.885Z,91.1387
2024-05-09T04:11:11.232Z,90.6389
2024-05-09T04:12:14.635Z,90.5749
2024-05-09T04:13:17.843Z,90.7211
2024-05-09T04:14:21.118Z,90.4934
2024-05-09T04:15:24.355Z,90.3871
2024-05-09T04:16:24.416Z,90.3816
2024-05-09T04:17:27.740Z,90.3503
2024-05-09T04:18:31.091Z,90.2366
2024-05-09T04:19:34.535Z,90.1020
2024-05-09T04:20:40.364Z,90.0628
2024-05-09T04:21:40.951Z,89.9060
2024-05-09T04:22:44.267Z,90.0411
2024-05-09T04:23:47.547Z,90.1031
2024-05-09T04:24:50.786Z,90.2590
2024-05-09T04:25:54.839Z,90.1176
2024-05-09T04:26:54.558Z,90.2467
2024-05-09T04:27:57.830Z,90.3647
2024-05-09T04:29:01.086Z,90.4213
2024-05-09T04:30:06.098Z,90.1706
2024-05-09T04:31:07.459Z,90.4031
2024-05-09T04:32:10.817Z,90.5009
2024-05-09T04:33:14.943Z,90.6157
2024-05-09T04:34:15.216Z,90.5254
2024-05-09T04:35:18.501Z,90.5543
2024-05-09T04:36:21.711Z,90.4095
2024-05-09T04:37:24.976Z,90.5965
2024-05-09T04:38:28.221Z,90.3949
2024-05-09T04:39:31.438Z,90.2886
2024-05-09T04:40:36.698Z,90.0923
2024-05-09T04:41:37.281Z,89.9277
2024-05-09T04:42:40.485Z,90.3010
2024-05-09T04:43:43.712Z,90.0783
2024-05-09T04:44:46.953Z,90.2090
2024-05-09T04:45:50.180Z,90.2697
2024-05-09T04:46:53.512Z,89.7940
2024-05-09T04:47:56.966Z,89.8862
2024-05-09T04:48:56.915Z,89.7485
2024-05-09T04:50:00.203Z,89.7422
2024-05-09T04:51:03.709Z,89.9021
2024-05-09T04:52:03.498Z,89.8987
2024-05-09T04:53:07.613Z,89.9961
2024-05-09T04:54:10.738Z,89.7555
2024-05-09T04:55:09.178Z,90.0172
2024-05-09T04:56:12.495Z,90.1667
2024-05-09T04:57:15.708Z,90.3506
2024-05-09T04:58:18.906Z,90.2805
2024-05-09T04:59:22.296Z,90.1550
2024-05-09T05:00:32.044Z,90.1516
2024-05-09T05:01:27.677Z,89.9356
2024-05-09T05:02:30.951Z,90.0154
2024-05-09T05:03:34.292Z,90.2306
2024-05-09T05:04:37.635Z,90.1329
2024-05-09T05:05:41.361Z,89.8584
2024-05-09T05:06:41.326Z,89.7432
2024-05-09T05:07:44.592Z,89.7783
2024-05-09T05:08:47.823Z,89.9279
2024-05-09T05:09:51.039Z,90.0624
2024-05-09T05:10:54.437Z,90.3933
2024-05-09T05:11:57.831Z,90.0915
2024-05-09T05:13:01.083Z,90.2450
2024-05-09T05:14:04.394Z,90.0941
2024-05-09T05:15:07.580Z,89.9547
2024-05-09T05:16:10.802Z,90.2249
2024-05-09T05:17:14.091Z,89.9857
2024-05-09T05:18:17.463Z,89.8546
2024-05-09T05:19:17.839Z,89.9869
2024-05-09T05:20:27.038Z,89.9356
2024-05-09T05:21:19.861Z,90.1186
2024-05-09T05:22:23.094Z,90.2612
2024-05-09T05:23:26.409Z,89.8059
2024-05-09T05:24:29.642Z,89.8828
2024-05-09T05:25:32.865Z,89.9291
2024-05-09T05:26:36.167Z,89.9649
2024-05-09T05:27:39.417Z,89.8088
2024-05-09T05:28:42.652Z,89.3975
2024-05-09T05:29:45.915Z,89.5603
2024-05-09T05:30:49.126Z,89.5864
2024-05-09T05:31:52.443Z,89.5491
2024-05-09T05:32:55.889Z,89.9925
2024-05-09T05:33:55.923Z,90.2408
2024-05-09T05:34:59.213Z,90.2067
2024-05-09T05:36:02.450Z,90.0742
2024-05-09T05:37:05.648Z,89.6303
2024-05-09T05:38:09.004Z,89.7849
2024-05-09T05:39:09.161Z,90.1967
2024-05-09T05:40:20.629Z,89.7278
2024-05-09T05:41:14.608Z,90.1846
2024-05-09T05:42:17.850Z,90.0848
2024-05-09T05:43:21.067Z,90.7841
2024-05-09T05:44:24.364Z,90.5681
2024-05-09T05:45:27.609Z,90.6166
2024-05-09T05:46:30.841Z,90.8134
2024-05-09T05:47:34.323Z,90.4738
2024-05-09T05:48:34.331Z,90.1389
2024-05-09T05:49:34.290Z,90.1833
2024-05-09T05:50:38.591Z,90.2424
2024-05-09T05:51:38.616Z,90.2003
2024-05-09T05:52:41.841Z,90.5084
2024-05-09T05:53:45.137Z,90.3146
2024-05-09T05:54:48.348Z,89.9779
2024-05-09T05:55:51.628Z,89.9571
2024-05-09T05:56:54.895Z,89.9282
2024-05-09T05:57:58.129Z,90.3414
2024-05-09T05:59:01.425Z,90.3396
2024-05-09T06:00:09.233Z,90.4916
2024-05-09T06:01:06.814Z,90.2762
2024-05-09T06:02:10.236Z,90.1795
2024-05-09T06:03:14.290Z,89.9580
2024-05-09T06:04:14.322Z,90.0251
2024-05-09T06:05:17.605Z,89.8086
2024-05-09T06:06:21.024Z,90.0863
2024-05-09T06:07:24.198Z,90.1664
2024-05-09T06:08:30.256Z,89.9190
2024-05-09T06:09:30.374Z,89.6888
2024-05-09T06:10:38.742Z,89.2922
2024-05-09T06:11:35.803Z,89.1433
2024-05-09T06:12:39.124Z,89.6906
2024-05-09T06:13:42.338Z,89.0339
2024-05-09T06:14:45.573Z,89.0915
2024-05-09T06:15:48.976Z,89.1952
2024-05-09T06:16:54.057Z,89.3684
2024-05-09T06:17:54.595Z,89.4965
2024-05-09T06:18:54.602Z,89.1618
2024-05-09T06:19:54.884Z,88.6056
2024-05-09T06:20:55.091Z,88.6303
2024-05-09T06:21:58.308Z,88.7171
2024-05-09T06:23:01.671Z,87.9978
2024-05-09T06:24:06.778Z,87.7789
2024-05-09T06:25:06.536Z,88.1411
2024-05-09T06:26:09.845Z,87.9847
2024-05-09T06:27:13.038Z,87.6367
2024-05-09T06:28:16.363Z,87.6729
2024-05-09T06:29:19.601Z,87.8173
2024-05-09T06:30:30.115Z,87.1161
2024-05-09T06:31:25.005Z,87.4650
2024-05-09T06:32:28.348Z,87.0605
2024-05-09T06:33:31.764Z,86.7794
2024-05-09T06:34:35.082Z,86.5161
2024-05-09T06:35:38.521Z,86.6622
2024-05-09T06:36:38.331Z,86.4517
2024-05-09T06:37:41.615Z,85.6578
2024-05-09T06:38:44.931Z,84.9563
2024-05-09T06:39:48.145Z,85.0090
2024-05-09T06:40:51.427Z,85.7395
2024-05-09T06:41:51.388Z,85.8179
2024-05-09T06:42:54.621Z,85.9367
2024-05-09T06:43:57.962Z,86.5696
2024-05-09T06:45:01.152Z,86.0529
2024-05-09T06:46:04.376Z,84.9882
2024-05-09T06:47:07.785Z,85.7045
2024-05-09T06:48:11.267Z,85.4590
2024-05-09T06:49:11.412Z,84.8843
2024-05-09T06:50:20.153Z,84.4252
2024-05-09T06:51:13.742Z,84.2896
2024-05-09T06:52:16.962Z,83.9189
2024-05-09T06:53:20.380Z,82.5295
2024-05-09T06:54:23.711Z,83.8833
2024-05-09T06:55:26.939Z,84.6801
2024-05-09T06:56:30.358Z,84.8350
2024-05-09T06:57:33.561Z,84.0473
2024-05-09T06:58:36.908Z,83.6071
2024-05-09T06:59:40.268Z,84.2683
2024-05-09T07:00:43.633Z,83.8682
2024-05-09T07:01:46.920Z,83.2620
2024-05-09T07:02:50.349Z,83.6678
2024-05-09T07:03:53.663Z,84.7481
2024-05-09T07:04:57.018Z,84.7425
2024-05-09T07:05:56.938Z,84.0536
2024-05-09T07:07:00.212Z,84.4959
2024-05-09T07:08:03.526Z,84.7711
2024-05-09T07:09:06.768Z,84.3080
2024-05-09T07:10:14.990Z,84.1231
2024-05-09T07:11:12.229Z,84.0727
2024-05-09T07:12:15.539Z,84.1844
2024-05-09T07:13:18.890Z,83.6324
2024-05-09T07:14:22.194Z,83.8501
2024-05-09T07:15:25.395Z,84.3205
2024-05-09T07:16:28.622Z,83.3566
2024-05-09T07:17:32.088Z,83.8160
2024-05-09T07:18:35.508Z,83.4579
2024-05-09T07:19:35.515Z,83.2810
2024-05-09T07:20:38.807Z,83.3920
2024-05-09T07:21:42.059Z,83.0826
2024-05-09T07:22:45.410Z,83.0143
2024-05-09T07:23:48.723Z,83.8487
2024-05-09T07:24:52.031Z,83.9211
2024-05-09T07:25:55.321Z,83.5870
2024-05-09T07:26:58.540Z,83.2913
2024-05-09T07:28:01.899Z,82.8083
2024-05-09T07:29:05.161Z,83.2000
2024-05-09T07:30:09.424Z,82.2918
2024-05-09T07:31:11.277Z,82.7185
2024-05-09T07:32:14.730Z,83.4871
2024-05-09T07:33:14.757Z,83.5836
2024-05-09T07:34:14.830Z,82.8768
2024-05-09T07:35:14.664Z,82.9504
2024-05-09T07:36:17.851Z,82.6742
2024-05-09T07:37:21.075Z,82.9860
2024-05-09T07:38:24.490Z,82.5389
2024-05-09T07:39:27.731Z,82.2444
2024-05-09T07:40:35.966Z,83.0267
2024-05-09T07:41:33.385Z,83.2919
2024-05-09T07:42:36.569Z,82.8990
2024-05-09T07:43:39.804Z,82.9954
2024-05-09T07:44:43.165Z,82.9500
2024-05-09T07:47:48.609Z,82.0404
2024-05-09T07:49:13.573Z,81.8540
2024-05-09T07:52:45.973Z,81.8240
2024-05-09T07:53:22.088Z,82.0569
2024-05-09T07:53:36.082Z,81.5671
2024-05-09T07:54:04.412Z,82.3191
2024-05-09T07:55:04.708Z,82.0093
2024-05-09T07:56:09.359Z,81.9842
2024-05-09T07:57:09.798Z,81.2864
2024-05-09T07:58:13.151Z,82.3662
2024-05-09T07:59:16.433Z,81.8768
2024-05-09T08:00:23.734Z,80.7584
2024-05-09T08:01:22.062Z,80.6960
2024-05-09T08:02:22.256Z,79.6609
2024-05-09T08:03:22.368Z,80.0440
2024-05-09T08:04:26.778Z,80.2252
2024-05-09T08:05:26.753Z,81.0509
2024-05-09T08:06:30.087Z,80.5454
2024-05-09T08:07:33.426Z,79.9002
2024-05-09T08:08:36.621Z,79.6735
2024-05-09T08:09:39.976Z,79.2758
2024-05-09T08:10:43.502Z,79.1686
2024-05-09T08:11:43.386Z,79.1981
2024-05-09T08:12:46.592Z,79.0596
2024-05-09T08:13:49.857Z,79.2727
2024-05-09T08:14:53.270Z,79.2458
2024-05-09T08:15:56.579Z,79.0155
2024-05-09T08:16:59.810Z,79.4050
2024-05-09T08:18:03.237Z,78.8945
2024-05-09T08:19:06.682Z,78.5704
2024-05-09T08:20:11.355Z,79.7551
2024-05-09T08:21:13.120Z,79.9768
2024-05-09T08:22:12.891Z,79.8705
2024-05-09T08:23:16.095Z,80.1653
2024-05-09T08:24:19.333Z,79.2738
2024-05-09T08:25:22.618Z,78.6922
2024-05-09T08:26:25.836Z,79.0953
2024-05-09T08:27:29.136Z,79.5171
2024-05-09T08:28:32.394Z,80.0426
2024-05-09T08:29:35.604Z,79.9777
2024-05-09T08:30:38.951Z,80.0400
2024-05-09T08:31:42.276Z,80.1268
2024-05-09T08:32:45.736Z,80.5327
2024-05-09T08:33:49.092Z,79.8807
2024-05-09T08:34:52.536Z,79.7153
2024-05-09T08:35:55.806Z,80.0863
2024-05-09T08:37:03.913Z,79.9514
2024-05-09T08:38:01.342Z,80.1375
2024-05-09T08:39:04.643Z,80.7450
2024-05-09T08:40:11.133Z,80.3605
2024-05-09T08:41:10.156Z,79.1919
2024-05-09T08:42:13.396Z,80.0078
2024-05-09T08:43:16.831Z,80.1987
2024-05-09T08:44:16.612Z,78.9837
2024-05-09T08:45:16.738Z,78.8926
2024-05-09T08:46:20.129Z,79.3171
2024-05-09T08:47:20.007Z,79.1642
2024-05-09T08:48:23.510Z,78.5276
2024-05-09T08:49:23.651Z,78.5789
2024-05-09T08:50:35.457Z,78.9232
2024-05-09T08:51:29.178Z,77.8497
2024-05-09T08:52:32.434Z,78.8930
2024-05-09T08:53:35.646Z,78.4392
2024-05-09T08:54:38.909Z,78.8401
2024-05-09T08:55:43.769Z,79.2219
2024-05-09T08:56:44.043Z,78.7588
2024-05-09T08:57:47.364Z,77.4132
2024-05-09T08:58:50.542Z,77.6157
2024-05-09T08:59:53.766Z,78.0426
2024-05-09T09:00:57.123Z,77.8612
2024-05-09T09:02:00.489Z,77.5759
2024-05-09T09:03:03.819Z,77.9419
2024-05-09T09:04:07.338Z,78.1397
2024-05-09T09:05:07.241Z,78.1642
2024-05-09T09:06:10.486Z,77.7661
2024-05-09T09:07:13.847Z,77.4224
2024-05-09T09:08:17.080Z,78.0233
2024-05-09T09:09:20.368Z,78.0523
2024-05-09T09:10:29.804Z,78.0663
2024-05-09T09:11:25.723Z,78.8169
2024-05-09T09:12:28.978Z,78.0868
2024-05-09T09:13:32.217Z,78.2011
2024-05-09T09:14:35.528Z,78.0478
2024-05-09T09:15:38.740Z,77.1597
2024-05-09T09:16:41.936Z,77.2256
2024-05-09T09:17:45.198Z,77.3186
2024-05-09T09:18:48.524Z,77.3891
2024-05-09T09:19:48.469Z,76.8467
2024-05-09T09:20:51.762Z,76.2331
2024-05-09T09:21:55.018Z,77.1778
2024-05-09T09:22:58.252Z,77.6804
2024-05-09T09:24:01.612Z,77.8136
2024-05-09T09:25:04.993Z,76.8896
2024-05-09T09:26:08.303Z,77.3348
2024-05-09T09:27:11.546Z,77.9937
2024-05-09T09:28:14.956Z,76.8937
2024-05-09T09:29:18.185Z,77.0711
2024-05-09T09:30:34.005Z,77.2830
2024-05-09T09:31:23.598Z,77.1445
2024-05-09T09:32:23.598Z,76.9545
2024-05-09T09:33:40.946Z,77.6593
2024-05-09T09:34:43.301Z,76.8905
2024-05-09T09:35:45.431Z,75.5472
2024-05-09T09:36:45.584Z,74.4605
2024-05-09T09:37:47.764Z,76.0432
2024-05-09T09:38:49.835Z,76.1655
2024-05-09T09:39:51.985Z,74.6512
2024-05-09T09:40:54.204Z,75.6584
2024-05-09T09:41:56.308Z,75.3154
2024-05-09T09:42:58.506Z,75.7908
2024-05-09T09:44:00.620Z,76.5118
2024-05-09T09:45:05.460Z,76.1080
2024-05-09T09:46:03.149Z,76.5599
2024-05-09T09:47:05.290Z,75.6423
2024-05-09T09:48:07.522Z,76.6334
2024-05-09T09:49:09.645Z,76.6929
2024-05-09T09:50:14.634Z,76.0200
2024-05-09T09:51:12.368Z,75.2550
2024-05-09T09:52:14.659Z,73.9326
2024-05-09T09:53:16.809Z,74.0476
2024-05-09T09:54:18.921Z,74.0205
2024-05-09T09:55:21.096Z,74.6274
2024-05-09T09:56:23.226Z,74.0186
2024-05-09T09:57:25.349Z,73.7888
2024-05-09T09:58:27.699Z,73.4420
2024-05-09T09:59:29.784Z,73.5484
2024-05-09T10:00:33.528Z,74.1211
2024-05-09T10:01:33.797Z,73.8602
2024-05-09T10:02:35.940Z,72.2039
2024-05-09T10:03:38.341Z,71.8288
2024-05-09T10:04:38.289Z,71.7679
2024-05-09T10:05:42.097Z,71.4253
2024-05-09T10:06:41.361Z,70.7698
2024-05-09T10:07:43.472Z,71.4731
2024-05-09T10:08:45.609Z,70.9383
2024-05-09T10:09:47.768Z,69.4702
2024-05-09T10:10:50.242Z,68.9932
2024-05-09T10:11:52.360Z,69.3723
2024-05-09T10:12:51.833Z,69.5012
2024-05-09T10:13:54.034Z,69.4027
2024-05-09T10:14:56.158Z,70.0219
2024-05-09T10:15:58.415Z,70.9607
2024-05-09T10:17:00.659Z,70.1421
2024-05-09T10:18:03.095Z,71.2988
2024-05-09T10:19:05.363Z,72.2515
2024-05-09T10:20:14.657Z,71.8760
2024-05-09T10:21:08.078Z,70.8652
2024-05-09T10:22:10.344Z,70.7203
2024-05-09T10:23:12.621Z,70.4684
2024-05-09T10:24:14.702Z,70.2380
2024-05-09T10:25:16.874Z,69.5780
2024-05-09T10:26:19.112Z,69.0986
2024-05-09T10:27:21.311Z,70.3810
2024-05-09T10:28:23.546Z,69.5243
2024-05-09T10:29:25.718Z,68.4271
2024-05-09T10:30:34.082Z,67.9584
2024-05-09T10:31:28.561Z,67.7844
2024-05-09T10:32:30.745Z,68.1403
2024-05-09T10:33:33.103Z,69.6366
2024-05-09T10:34:35.414Z,67.6398
2024-05-09T10:35:37.570Z,66.0058
2024-05-09T10:36:39.873Z,67.4080
2024-05-09T10:37:42.025Z,66.7522
2024-05-09T10:38:44.138Z,66.2809
2024-05-09T10:39:46.341Z,66.2290
2024-05-09T10:40:48.447Z,67.1662
2024-05-09T10:41:50.731Z,68.5482
2024-05-09T10:42:52.900Z,68.2863
2024-05-09T10:43:55.024Z,68.8624
2024-05-09T10:44:57.120Z,68.9374
2024-05-09T10:45:59.265Z,69.6623
2024-05-09T10:47:01.401Z,70.6269
2024-05-09T10:48:03.601Z,69.8307
2024-05-09T10:49:07.875Z,69.9208
2024-05-09T10:50:15.737Z,69.8907
2024-05-09T10:51:08.249Z,70.7250
2024-05-09T10:52:10.473Z,70.0633
2024-05-09T10:53:12.582Z,69.8123
2024-05-09T10:54:14.692Z,69.6079
2024-05-09T10:55:17.079Z,69.9444
2024-05-09T10:56:19.183Z,68.9152
2024-05-09T10:57:21.343Z,69.4392
2024-05-09T10:58:23.581Z,69.6587
2024-05-09T10:59:25.689Z,68.4612
2024-05-09T11:00:33.595Z,68.7554
2024-05-09T11:01:28.758Z,69.9154
2024-05-09T11:02:31.122Z,70.0548
2024-05-09T11:03:31.117Z,68.7807
2024-05-09T11:04:33.337Z,67.2745
2024-05-09T11:05:35.528Z,67.2296
2024-05-09T11:06:37.690Z,66.7488
2024-05-09T11:07:40.025Z,66.7789
2024-05-09T11:08:42.216Z,67.9642
2024-05-09T11:09:44.451Z,67.4039
2024-05-09T11:10:46.702Z,66.6654
2024-05-09T11:11:48.879Z,65.8493
2024-05-09T11:12:51.180Z,63.3042
2024-05-09T11:13:53.263Z,62.9732
2024-05-09T11:14:55.492Z,65.6386
2024-05-09T11:15:57.603Z,65.5330
2024-05-09T11:16:58.245Z,66.1637
2024-05-09T11:18:00.583Z,66.0946
2024-05-09T11:19:02.900Z,66.2276
2024-05-09T11:20:13.298Z,66.3022
2024-05-09T11:21:05.697Z,66.4001
2024-05-09T11:22:07.925Z,66.0156
2024-05-09T11:23:10.118Z,64.8083
2024-05-09T11:24:12.194Z,63.9641
2024-05-09T11:25:14.418Z,62.3302
2024-05-09T11:26:16.541Z,63.2440
2024-05-09T11:27:18.655Z,62.8578
2024-05-09T11:28:20.903Z,64.0046
2024-05-09T11:29:23.018Z,64.1004
2024-05-09T11:30:30.115Z,63.5408
2024-05-09T11:31:25.972Z,63.6912
2024-05-09T11:32:28.327Z,64.1487
2024-05-09T11:33:30.634Z,65.3070
2024-05-09T11:34:32.901Z,64.3335
2024-05-09T11:35:35.058Z,65.4181
2024-05-09T11:36:37.207Z,65.5246
2024-05-09T11:37:39.346Z,65.2396
2024-05-09T11:38:41.473Z,64.9926
2024-05-09T11:39:43.612Z,65.8020
2024-05-09T11:40:45.728Z,64.4034
2024-05-09T11:41:47.861Z,64.4054
2024-05-09T11:42:52.498Z,64.4775
2024-05-09T11:43:50.180Z,62.9482
2024-05-09T11:44:52.287Z,63.6381
2024-05-09T11:45:54.431Z,63.5757
2024-05-09T11:46:56.508Z,62.7038
2024-05-09T11:47:58.846Z,63.2049
2024-05-09T11:49:01.110Z,62.8121
2024-05-09T11:50:04.365Z,63.7501
2024-05-09T11:51:04.765Z,64.7432
2024-05-09T11:52:06.909Z,64.2282
2024-05-09T11:53:09.049Z,62.4776
2024-05-09T11:54:11.126Z,64.0692
2024-05-09T11:55:13.320Z,64.8573
2024-05-09T11:56:15.432Z,64.5266
2024-05-09T11:57:17.522Z,65.4251
2024-05-09T11:58:19.854Z,66.3305
2024-05-09T11:59:22.118Z,65.3838
2024-05-09T12:00:33.754Z,65.8162
2024-05-09T12:01:27.510Z,66.5807
2024-05-09T12:02:25.079Z,65.0430
2024-05-09T12:03:27.352Z,65.4738
2024-05-09T12:04:29.581Z,64.8102
2024-05-09T12:05:32.035Z,65.8731
2024-05-09T12:06:31.899Z,65.1942
2024-05-09T12:07:34.037Z,65.3248
2024-05-09T12:08:36.152Z,63.9569
2024-05-09T12:09:38.401Z,65.1414
2024-05-09T12:10:40.769Z,64.3980
2024-05-09T12:11:40.525Z,61.6121
2024-05-09T12:12:42.642Z,61.8174
2024-05-09T12:13:44.791Z,63.5878
2024-05-09T12:14:46.901Z,63.1994
2024-05-09T12:15:49.044Z,65.3971
2024-05-09T12:16:51.275Z,64.5197
2024-05-09T12:17:53.573Z,64.5393
2024-05-09T12:18:55.984Z,62.8436
2024-05-09T12:19:58.182Z,64.2916
2024-05-09T12:21:00.305Z,63.5285
2024-05-09T12:22:02.466Z,63.4490
2024-05-09T12:23:04.613Z,62.9111
2024-05-09T12:24:06.687Z,61.6427
2024-05-09T12:25:08.898Z,61.9737
2024-05-09T12:26:11.075Z,60.8685
2024-05-09T12:27:11.140Z,60.9814
2024-05-09T12:28:13.314Z,62.1441
2024-05-09T12:29:15.451Z,61.9918
2024-05-09T12:30:29.034Z,62.8925
2024-05-09T12:31:18.214Z,61.4093
2024-05-09T12:32:20.432Z,62.3793
2024-05-09T12:33:22.674Z,62.2446
2024-05-09T12:34:24.782Z,62.7573
2024-05-09T12:35:26.895Z,62.2796
2024-05-09T12:36:27.557Z,62.5805
2024-05-09T12:37:29.719Z,61.4355
2024-05-09T12:38:31.838Z,58.8233
2024-05-09T12:39:33.988Z,59.3485